Phoenix, Arizona
Traffic Map
Current Weather Conditions
Phoenix, Arizona
Broken Clouds
Broken Clouds
36°
Feels Like: 36°
Wind Chill: 36° Ceiling: 28000
Heat Index: 36° Visibility: 10mi
Dew Point: -1° Wind: 8mph
Humidity: 10% Direction: 180° (S)
Pressure: 29.83in Gusts: 0mph
Raw Report DataKPHX 272151Z 18007KT 10SM FEW200 SCT240 BKN280 36/M01 A2983 RMK AO2 SLP081 T03561006
Traffic Incident Summary
Active as of:
Severity:
Category:
InformationThere was an issue retrieving the traffic information for this location. Please try a different location or try again shortly.
Advertisements
Track Severe Weather on mobile